createdAt,value
2023-02-03T00:01:40.984Z,3.40
2023-02-03T00:04:08.898Z,3.40
2023-02-03T00:06:37.314Z,3.40
2023-02-03T00:09:05.772Z,3.30
2023-02-03T00:11:33.823Z,3.30
2023-02-03T00:14:05.275Z,3.30
2023-02-03T00:16:33.339Z,3.40
2023-02-03T00:19:01.268Z,3.40
2023-02-03T00:21:29.251Z,3.30
2023-02-03T00:23:57.360Z,3.30
2023-02-03T00:26:25.921Z,3.40
2023-02-03T00:28:53.873Z,3.30
2023-02-03T00:31:25.132Z,3.30
2023-02-03T00:33:56.308Z,3.30
2023-02-03T00:36:24.576Z,3.30
2023-02-03T00:38:52.763Z,3.30
2023-02-03T00:41:21.930Z,3.30
2023-02-03T00:43:50.401Z,3.30
2023-02-03T00:46:18.670Z,3.30
2023-02-03T00:48:48.080Z,3.30
2023-02-03T00:51:16.307Z,3.30
2023-02-03T00:53:44.291Z,3.30
2023-02-03T00:56:13.401Z,3.30
2023-02-03T00:58:41.716Z,3.30
2023-02-03T01:01:09.772Z,3.30
2023-02-03T01:03:38.036Z,3.30
2023-02-03T01:06:16.354Z,3.30
2023-02-03T01:08:44.988Z,3.30
2023-02-03T01:11:14.771Z,3.30
2023-02-03T01:13:42.842Z,3.30
2023-02-03T01:16:11.992Z,3.40
2023-02-03T01:18:40.509Z,3.40
2023-02-03T01:21:10.187Z,3.30
2023-02-03T01:23:40.053Z,3.30
2023-02-03T01:26:10.561Z,3.30
2023-02-03T01:28:39.094Z,3.40
2023-02-03T01:31:11.917Z,3.30
2023-02-03T01:33:41.131Z,3.40
2023-02-03T01:36:10.205Z,3.40
2023-02-03T01:38:39.660Z,3.30
2023-02-03T01:41:10.638Z,3.40
2023-02-03T01:43:41.362Z,3.40
2023-02-03T01:46:26.845Z,3.40
2023-02-03T01:48:57.708Z,3.40
2023-02-03T01:51:26.034Z,3.40
2023-02-03T01:53:57.345Z,3.30
2023-02-03T01:56:27.281Z,3.30
2023-02-03T01:58:55.538Z,3.30
2023-02-03T02:01:23.627Z,3.40
2023-02-03T02:03:55.319Z,3.40
2023-02-03T02:06:23.383Z,3.40
2023-02-03T02:08:53.754Z,3.40
2023-02-03T02:11:23.280Z,3.40
2023-02-03T02:13:53.423Z,3.40
2023-02-03T02:16:29.218Z,3.40
2023-02-03T02:19:10.416Z,3.50
2023-02-03T02:22:04.346Z,3.50
2023-02-03T02:25:10.724Z,3.40
2023-02-03T02:28:18.612Z,3.40
2023-02-03T02:31:28.281Z,3.40
2023-02-03T02:34:05.831Z,3.40
2023-02-03T02:36:42.452Z,3.50
2023-02-03T02:39:15.253Z,3.40
2023-02-03T02:41:47.423Z,3.50
2023-02-03T02:44:21.110Z,3.40
2023-02-03T02:46:52.038Z,3.40
2023-02-03T02:49:26.248Z,3.40
2023-02-03T02:51:54.980Z,3.50
2023-02-03T02:54:26.358Z,3.50
2023-02-03T02:56:59.638Z,3.40
2023-02-03T02:59:27.684Z,3.40
2023-02-03T03:01:55.762Z,3.40
2023-02-03T03:04:28.695Z,3.40
2023-02-03T03:07:01.604Z,3.40
2023-02-03T03:09:36.142Z,3.40
2023-02-03T03:12:09.795Z,3.40
2023-02-03T03:14:40.988Z,3.40
2023-02-03T03:17:12.255Z,3.40
2023-02-03T03:19:45.826Z,3.40
2023-02-03T03:22:17.264Z,3.30
2023-02-03T03:24:49.250Z,3.40
2023-02-03T03:27:21.653Z,3.40
2023-02-03T03:29:55.565Z,3.40
2023-02-03T03:32:24.291Z,3.40
2023-02-03T03:34:54.233Z,3.40
2023-02-03T03:37:29.813Z,3.40
2023-02-03T03:40:00.776Z,3.40
2023-02-03T03:42:33.954Z,3.30
2023-02-03T03:45:06.661Z,3.40
2023-02-03T03:47:39.973Z,3.40
2023-02-03T03:50:14.145Z,3.30
2023-02-03T03:52:44.270Z,3.40
2023-02-03T03:55:15.912Z,3.30
2023-02-03T03:57:53.144Z,3.30
2023-02-03T04:00:24.584Z,3.40
2023-02-03T04:02:55.399Z,3.30
2023-02-03T04:05:26.292Z,3.40
2023-02-03T04:07:54.522Z,3.40
2023-02-03T04:10:31.469Z,3.40
2023-02-03T04:12:59.798Z,3.40
2023-02-03T04:15:28.354Z,3.40
2023-02-03T04:17:57.282Z,3.30
2023-02-03T04:20:26.946Z,3.30
2023-02-03T04:22:55.213Z,3.30
2023-02-03T04:25:23.992Z,3.30
2023-02-03T04:27:52.067Z,3.40
2023-02-03T04:30:20.109Z,3.30
2023-02-03T04:32:48.283Z,3.30
2023-02-03T04:35:16.471Z,3.30
2023-02-03T04:37:46.090Z,3.30
2023-02-03T04:40:14.488Z,3.30
2023-02-03T04:42:42.908Z,3.30
2023-02-03T04:45:12.727Z,3.30
2023-02-03T04:47:40.733Z,3.30
2023-02-03T04:50:09.518Z,3.30
2023-02-03T04:52:37.540Z,3.30
2023-02-03T04:55:07.910Z,3.30
2023-02-03T04:57:35.985Z,3.30
2023-02-03T05:00:04.267Z,3.30
2023-02-03T05:02:32.479Z,3.30
2023-02-03T05:05:00.581Z,3.30
2023-02-03T05:07:29.030Z,3.30
2023-02-03T05:09:57.381Z,3.30
2023-02-03T05:12:27.134Z,3.20
2023-02-03T05:14:55.166Z,3.30
2023-02-03T05:17:23.241Z,3.30
2023-02-03T05:19:51.256Z,3.30
2023-02-03T05:22:19.545Z,3.30
2023-02-03T05:24:47.534Z,3.30
2023-02-03T05:27:15.614Z,3.30
2023-02-03T05:29:45.028Z,3.30
2023-02-03T05:32:13.186Z,3.30
2023-02-03T05:34:42.401Z,3.30
2023-02-03T05:37:10.595Z,3.30
2023-02-03T05:39:38.506Z,3.20
2023-02-03T05:42:05.597Z,3.30
2023-02-03T05:44:33.563Z,3.30
2023-02-03T05:47:03.005Z,3.30
2023-02-03T05:49:31.104Z,3.20
2023-02-03T05:51:59.202Z,3.30
2023-02-03T05:54:27.376Z,3.20
2023-02-03T05:56:55.345Z,3.30
2023-02-03T05:59:23.588Z,3.20
2023-02-03T06:01:51.747Z,3.20
2023-02-03T06:04:21.359Z,3.20
2023-02-03T06:06:49.446Z,3.20
2023-02-03T06:09:17.529Z,3.20
2023-02-03T06:11:46.248Z,3.30
2023-02-03T06:14:14.375Z,3.20
2023-02-03T06:16:42.460Z,3.20
2023-02-03T06:19:10.667Z,3.30
2023-02-03T06:21:40.230Z,3.20
2023-02-03T06:24:08.491Z,3.20
2023-02-03T06:26:36.446Z,3.30
2023-02-03T06:29:04.510Z,3.20
2023-02-03T06:31:32.591Z,3.30
2023-02-03T06:34:02.673Z,3.30
2023-02-03T06:36:30.668Z,3.30
2023-02-03T06:38:59.950Z,3.20
2023-02-03T06:41:30.658Z,3.30
2023-02-03T06:43:58.794Z,3.30
2023-02-03T06:46:29.713Z,3.30
2023-02-03T06:48:57.706Z,3.30
2023-02-03T06:51:25.754Z,3.30
2023-02-03T06:53:53.750Z,3.30
2023-02-03T06:56:23.191Z,3.30
2023-02-03T06:58:51.096Z,3.30
2023-02-03T07:01:19.137Z,3.30
2023-02-03T07:03:47.291Z,3.30
2023-02-03T07:06:15.859Z,3.30
2023-02-03T07:08:43.899Z,3.30
2023-02-03T07:11:12.655Z,3.30
2023-02-03T07:13:42.011Z,3.30
2023-02-03T07:16:10.112Z,3.30
2023-02-03T07:18:47.711Z,3.30
2023-02-03T07:21:19.270Z,3.40
2023-02-03T07:23:48.790Z,3.40
2023-02-03T07:26:17.704Z,3.40
2023-02-03T07:28:47.190Z,3.40
2023-02-03T07:31:15.332Z,3.40
2023-02-03T07:33:43.350Z,3.40
2023-02-03T07:36:11.898Z,3.50
2023-02-03T07:38:40.055Z,3.50
2023-02-03T07:41:08.244Z,3.50
2023-02-03T07:43:36.161Z,3.50
2023-02-03T07:46:05.996Z,3.50
2023-02-03T07:48:34.060Z,3.60
2023-02-03T07:51:02.289Z,3.60
2023-02-03T07:53:30.408Z,3.60
2023-02-03T07:56:01.232Z,3.60
2023-02-03T07:58:29.245Z,3.60
2023-02-03T08:00:57.724Z,3.60
2023-02-03T08:03:27.301Z,3.70
2023-02-03T08:05:55.261Z,3.70
2023-02-03T08:08:23.295Z,3.60
2023-02-03T08:10:51.287Z,3.70
2023-02-03T08:13:19.385Z,3.70
2023-02-03T08:15:48.267Z,3.80
2023-02-03T08:18:16.343Z,3.80
2023-02-03T08:20:45.743Z,3.80
2023-02-03T08:23:13.748Z,3.80
2023-02-03T08:25:41.819Z,3.90
2023-02-03T08:28:09.779Z,3.80
2023-02-03T08:30:38.097Z,3.90
2023-02-03T08:33:06.080Z,3.90
2023-02-03T08:35:34.348Z,3.80
2023-02-03T08:38:03.869Z,3.90
2023-02-03T08:40:31.879Z,3.90
2023-02-03T08:42:59.814Z,3.90
2023-02-03T08:45:27.927Z,3.90
2023-02-03T08:47:56.103Z,3.90
2023-02-03T08:50:24.173Z,3.90
2023-02-03T08:52:52.229Z,3.80
2023-02-03T08:55:21.668Z,3.80
2023-02-03T08:57:49.731Z,3.80
2023-02-03T09:00:18.590Z,3.90
2023-02-03T09:02:46.555Z,3.90
2023-02-03T09:05:15.913Z,3.90
2023-02-03T09:07:43.957Z,3.90
2023-02-03T09:10:12.026Z,4.00
2023-02-03T09:12:41.300Z,4.00
2023-02-03T09:15:10.116Z,4.00
2023-02-03T09:17:38.148Z,4.00
2023-02-03T09:20:07.086Z,4.10
2023-02-03T09:22:35.164Z,4.10
2023-02-03T09:25:03.315Z,4.10
2023-02-03T09:27:31.348Z,4.10
2023-02-03T09:30:00.824Z,4.10
2023-02-03T09:32:28.869Z,4.10
2023-02-03T09:34:57.178Z,4.20
2023-02-03T09:37:26.409Z,4.20
2023-02-03T09:39:55.084Z,4.30
2023-02-03T09:42:52.502Z,4.20
2023-02-03T09:45:27.015Z,4.20
2023-02-03T09:47:58.053Z,4.30
2023-02-03T09:50:29.424Z,4.30
2023-02-03T09:53:05.448Z,4.30
2023-02-03T09:55:38.033Z,4.40
2023-02-03T09:58:11.947Z,4.40
2023-02-03T10:00:45.577Z,4.40
2023-02-03T10:03:25.074Z,4.40
2023-02-03T10:06:13.287Z,4.40
2023-02-03T10:09:05.184Z,4.50
2023-02-03T10:11:47.040Z,4.50
2023-02-03T10:14:33.991Z,4.50
2023-02-03T10:17:29.240Z,4.60
2023-02-03T10:20:03.726Z,4.70
2023-02-03T10:22:35.968Z,4.60
2023-02-03T10:25:09.697Z,4.60
2023-02-03T10:27:39.133Z,4.70
2023-02-03T10:30:19.059Z,4.70
2023-02-03T10:32:55.031Z,4.60
2023-02-03T10:35:27.417Z,4.60
2023-02-03T10:37:59.867Z,4.70
2023-02-03T10:40:29.540Z,4.70
2023-02-03T10:43:15.549Z,4.70
2023-02-03T10:45:43.593Z,4.70
2023-02-03T10:48:19.055Z,4.80
2023-02-03T10:50:51.311Z,4.70
2023-02-03T10:53:27.078Z,4.70
2023-02-03T10:56:04.217Z,4.80
2023-02-03T10:58:34.216Z,4.80
2023-02-03T11:01:11.695Z,4.70
2023-02-03T11:03:44.052Z,4.80
2023-02-03T11:06:14.067Z,4.70
2023-02-03T11:08:44.378Z,4.80
2023-02-03T11:11:19.485Z,4.80
2023-02-03T11:13:48.866Z,4.90
2023-02-03T11:16:20.222Z,5.00
2023-02-03T11:18:54.631Z,5.00
2023-02-03T11:21:25.045Z,5.00
2023-02-03T11:24:02.353Z,5.00
2023-02-03T11:26:33.716Z,5.00
2023-02-03T11:29:05.174Z,5.00
2023-02-03T11:31:35.648Z,5.00
2023-02-03T11:34:07.122Z,4.90
2023-02-03T11:36:36.539Z,5.00
2023-02-03T11:39:26.257Z,5.00
2023-02-03T11:41:55.198Z,5.00
2023-02-03T11:44:26.226Z,5.00
2023-02-03T11:46:58.510Z,5.10
2023-02-03T11:49:56.958Z,5.10
2023-02-03T11:52:48.661Z,5.20
2023-02-03T11:55:26.697Z,5.10
2023-02-03T11:58:09.584Z,5.10
2023-02-03T12:00:47.406Z,5.10
2023-02-03T12:03:44.251Z,5.10
2023-02-03T12:06:31.775Z,5.10
2023-02-03T12:09:25.588Z,5.10
2023-02-03T12:12:13.506Z,5.10
2023-02-03T12:14:53.770Z,5.10
2023-02-03T12:18:03.722Z,5.10
2023-02-03T12:20:55.995Z,5.10
2023-02-03T12:23:35.039Z,5.10
2023-02-03T12:26:13.830Z,5.10
2023-02-03T12:29:05.786Z,5.10
2023-02-03T12:31:39.715Z,5.10
2023-02-03T12:34:16.744Z,5.10
2023-02-03T12:36:49.746Z,5.10
2023-02-03T12:39:26.447Z,5.10
2023-02-03T12:42:01.152Z,5.00
2023-02-03T12:44:34.369Z,5.00
2023-02-03T12:47:08.907Z,5.10
2023-02-03T12:49:43.384Z,5.10
2023-02-03T12:52:21.529Z,5.10
2023-02-03T12:54:58.545Z,5.00
2023-02-03T12:57:31.185Z,5.10
2023-02-03T13:00:16.614Z,5.10
2023-02-03T13:02:57.855Z,5.20
2023-02-03T13:05:31.389Z,5.20
2023-02-03T13:08:07.471Z,5.10
2023-02-03T13:10:44.061Z,5.20
2023-02-03T13:13:16.055Z,5.20
2023-02-03T13:15:47.462Z,5.10
2023-02-03T13:18:26.350Z,5.10
2023-02-03T13:20:55.133Z,5.20
2023-02-03T13:23:24.368Z,5.10
2023-02-03T13:26:16.319Z,5.10
2023-02-03T13:29:06.406Z,5.00
2023-02-03T13:31:44.655Z,5.00
2023-02-03T13:34:36.965Z,5.00
2023-02-03T13:37:28.898Z,5.00
2023-02-03T13:40:31.119Z,5.00
2023-02-03T13:43:05.990Z,5.00
2023-02-03T13:45:39.699Z,5.00
2023-02-03T13:48:15.391Z,4.90
2023-02-03T13:50:44.842Z,4.90
2023-02-03T13:53:22.165Z,4.90
2023-02-03T13:55:56.192Z,5.00
2023-02-03T13:58:27.920Z,4.90
2023-02-03T14:01:05.956Z,4.80
2023-02-03T14:03:45.248Z,4.80
2023-02-03T14:07:01.573Z,4.80
2023-02-03T14:09:51.597Z,4.90
2023-02-03T14:12:36.784Z,4.80
2023-02-03T14:15:32.906Z,4.80
2023-02-03T14:18:38.212Z,4.90
2023-02-03T14:21:17.483Z,5.10
2023-02-03T14:23:58.506Z,5.30
2023-02-03T14:26:38.735Z,5.50
2023-02-03T14:29:08.581Z,5.70
2023-02-03T14:31:57.923Z,5.80
2023-02-03T14:34:32.330Z,5.90
2023-02-03T14:37:15.935Z,5.90
2023-02-03T14:40:13.326Z,5.90
2023-02-03T14:43:10.983Z,6.00
2023-02-03T14:45:57.165Z,6.00
2023-02-03T14:48:46.712Z,6.00
2023-02-03T14:51:29.181Z,6.00
2023-02-03T14:54:11.370Z,6.00
2023-02-03T14:57:05.047Z,5.90
2023-02-03T14:59:41.487Z,5.90
2023-02-03T15:02:15.769Z,6.00
2023-02-03T15:04:46.554Z,5.90
2023-02-03T15:07:36.830Z,5.90
2023-02-03T15:10:12.936Z,5.90
2023-02-03T15:12:46.443Z,5.90
2023-02-03T15:15:16.232Z,5.80
2023-02-03T15:17:44.185Z,5.80
2023-02-03T15:20:35.157Z,5.80
2023-02-03T15:23:03.428Z,5.80
2023-02-03T15:25:33.586Z,5.80
2023-02-03T15:28:19.484Z,5.70
2023-02-03T15:30:49.250Z,5.80
2023-02-03T15:33:21.208Z,5.70
2023-02-03T15:35:55.508Z,5.70
2023-02-03T15:38:27.336Z,5.70
2023-02-03T15:40:58.812Z,5.70
2023-02-03T15:43:32.775Z,5.70
2023-02-03T15:46:07.264Z,5.70
2023-02-03T15:48:41.269Z,5.70
2023-02-03T15:51:16.429Z,5.60
2023-02-03T15:53:51.899Z,5.70
2023-02-03T15:56:26.497Z,5.60
2023-02-03T15:58:54.802Z,5.60
2023-02-03T16:01:26.101Z,5.60
2023-02-03T16:03:55.851Z,5.60
2023-02-03T16:06:30.391Z,5.50
2023-02-03T16:08:59.542Z,5.50
2023-02-03T16:11:35.312Z,5.50
2023-02-03T16:14:06.672Z,5.50
2023-02-03T16:16:38.272Z,5.40
2023-02-03T16:19:13.229Z,5.40
2023-02-03T16:21:54.155Z,5.40
2023-02-03T16:24:40.324Z,5.40
2023-02-03T16:27:22.367Z,5.40
2023-02-03T16:30:07.695Z,5.40
2023-02-03T16:32:53.469Z,5.40
2023-02-03T16:35:38.787Z,5.40
2023-02-03T16:38:26.586Z,5.40
2023-02-03T16:41:11.939Z,5.40
2023-02-03T16:43:57.371Z,5.30
2023-02-03T16:46:42.564Z,5.30
2023-02-03T16:49:27.744Z,5.40
2023-02-03T16:51:56.121Z,5.40
2023-02-03T16:54:28.138Z,5.40
2023-02-03T16:56:57.850Z,5.30
2023-02-03T16:59:26.608Z,5.30
2023-02-03T17:01:54.623Z,5.30
2023-02-03T17:04:22.612Z,5.30
2023-02-03T17:06:51.217Z,5.30
2023-02-03T17:09:22.092Z,5.30
2023-02-03T17:11:51.619Z,5.30
2023-02-03T17:14:19.544Z,5.30
2023-02-03T17:16:47.673Z,5.30
2023-02-03T17:19:16.179Z,5.30
2023-02-03T17:21:44.324Z,5.30
2023-02-03T17:24:12.504Z,5.40
2023-02-03T17:26:40.446Z,5.30
2023-02-03T17:29:11.214Z,5.30
2023-02-03T17:31:39.286Z,5.30
2023-02-03T17:34:07.220Z,5.20
2023-02-03T17:36:35.219Z,5.30
2023-02-03T17:55:30.852Z,5.20
2023-02-03T17:57:59.359Z,5.10
2023-02-03T18:00:28.926Z,5.10
2023-02-03T18:02:57.796Z,5.10
2023-02-03T18:05:25.886Z,5.10
2023-02-03T18:07:53.802Z,5.10
2023-02-03T18:10:21.855Z,5.00
2023-02-03T18:12:50.000Z,5.00
2023-02-03T18:15:18.237Z,5.00
2023-02-03T18:17:47.565Z,5.00
2023-02-03T18:20:15.571Z,5.00
2023-02-03T18:22:45.498Z,4.90
2023-02-03T18:25:16.787Z,4.90
2023-02-03T18:27:45.006Z,4.90
2023-02-03T18:30:14.932Z,4.90
2023-02-03T18:32:42.850Z,4.90
2023-02-03T18:35:16.684Z,4.90
2023-02-03T18:37:44.680Z,4.90
2023-02-03T18:40:13.310Z,4.80
2023-02-03T18:42:41.313Z,4.80
2023-02-03T18:45:10.414Z,4.80
2023-02-03T18:47:38.460Z,4.80
2023-02-03T18:50:07.094Z,4.80
2023-02-03T18:52:36.385Z,4.80
2023-02-03T18:55:04.584Z,4.80
2023-02-03T18:57:32.550Z,4.70
2023-02-03T19:00:00.641Z,4.70
2023-02-03T19:02:28.754Z,4.70
2023-02-03T19:04:56.662Z,4.80
2023-02-03T19:07:25.299Z,4.80
2023-02-03T19:09:54.750Z,4.80
2023-02-03T19:12:22.778Z,4.80
2023-02-03T19:14:50.847Z,4.80
2023-02-03T19:17:19.083Z,4.70
2023-02-03T19:19:47.091Z,4.70
2023-02-03T19:22:15.152Z,4.70
2023-02-03T19:24:43.222Z,4.70
2023-02-03T19:27:12.619Z,4.70
2023-02-03T19:29:40.771Z,4.70
2023-02-03T19:32:09.662Z,4.70
2023-02-03T19:34:37.670Z,4.70
2023-02-03T19:37:06.214Z,4.80
2023-02-03T19:39:34.142Z,4.70
2023-02-03T19:42:02.568Z,4.70
2023-02-03T19:44:31.893Z,4.70
2023-02-03T19:46:59.860Z,4.70
2023-02-03T19:49:28.636Z,4.70
2023-02-03T19:51:56.577Z,4.80
2023-02-03T19:54:24.645Z,4.70
2023-02-03T19:56:52.972Z,4.70
2023-02-03T19:59:21.114Z,4.70
2023-02-03T20:01:50.672Z,4.70
2023-02-03T20:04:18.686Z,4.70
2023-02-03T20:06:46.635Z,4.70
2023-02-03T20:09:14.590Z,4.70
2023-02-03T20:11:42.547Z,4.60
2023-02-03T20:14:11.108Z,4.70
2023-02-03T20:16:39.005Z,4.60
2023-02-03T20:19:09.539Z,4.60
2023-02-03T20:21:37.496Z,4.50
2023-02-03T20:24:05.535Z,4.60
2023-02-03T20:26:33.427Z,4.60
2023-02-03T20:29:01.395Z,4.50
2023-02-03T20:31:29.596Z,4.50
2023-02-03T20:33:57.621Z,4.60
2023-02-03T20:36:27.044Z,4.60
2023-02-03T20:38:54.920Z,4.60
2023-02-03T20:41:22.931Z,4.60
2023-02-03T20:43:51.028Z,4.50
2023-02-03T20:46:20.448Z,4.50
2023-02-03T20:48:48.609Z,4.50
2023-02-03T20:51:20.913Z,4.50
2023-02-03T20:53:51.425Z,4.50
2023-02-03T20:56:21.675Z,4.50
2023-02-03T20:58:49.842Z,4.50
2023-02-03T21:01:20.752Z,4.50
2023-02-03T21:04:06.967Z,4.60
2023-02-03T21:06:36.030Z,4.50
2023-02-03T21:09:14.598Z,4.50
2023-02-03T21:11:43.277Z,4.50
2023-02-03T21:14:22.889Z,4.50
2023-02-03T21:16:51.598Z,4.50
2023-02-03T21:19:29.127Z,4.50
2023-02-03T21:21:57.313Z,4.40
2023-02-03T21:24:29.539Z,4.50
2023-02-03T21:26:58.705Z,4.50
2023-02-03T21:29:31.096Z,4.50
2023-02-03T21:32:17.568Z,4.40
2023-02-03T21:35:05.323Z,4.40
2023-02-03T21:37:39.824Z,4.30
2023-02-03T21:40:21.565Z,4.30
2023-02-03T21:42:49.610Z,4.30
2023-02-03T21:45:38.186Z,4.30
2023-02-03T21:48:27.481Z,4.20
2023-02-03T21:50:56.817Z,4.30
2023-02-03T21:53:28.154Z,4.20
2023-02-03T21:55:57.515Z,4.20
2023-02-03T21:58:28.893Z,4.20
2023-02-03T22:00:58.187Z,4.20
2023-02-03T22:03:29.224Z,4.20
2023-02-03T22:06:16.620Z,4.20
2023-02-03T22:08:46.785Z,4.20
2023-02-03T22:11:18.453Z,4.20
2023-02-03T22:13:47.323Z,4.20
2023-02-03T22:16:17.243Z,4.10
2023-02-03T22:18:46.008Z,4.10
2023-02-03T22:21:14.356Z,4.10
2023-02-03T22:23:42.813Z,4.10
2023-02-03T22:26:12.457Z,4.20
2023-02-03T22:28:42.334Z,4.20
2023-02-03T22:31:11.648Z,4.20
2023-02-03T22:33:40.499Z,4.20
2023-02-03T22:36:10.513Z,4.20
2023-02-03T22:38:40.302Z,4.20
2023-02-03T22:41:11.833Z,4.20
2023-02-03T22:43:41.638Z,4.10
2023-02-03T22:46:09.900Z,4.10
2023-02-03T22:48:37.910Z,4.10
2023-02-03T22:51:06.227Z,4.10
2023-02-03T22:53:34.742Z,4.10
2023-02-03T22:56:02.907Z,4.10
2023-02-03T22:58:31.083Z,4.20
2023-02-03T23:01:00.449Z,4.10
2023-02-03T23:03:31.969Z,4.10
2023-02-03T23:06:00.205Z,4.10
2023-02-03T23:08:28.404Z,4.10
2023-02-03T23:10:56.840Z,4.10
2023-02-03T23:13:25.089Z,4.10
2023-02-03T23:15:53.164Z,4.20
2023-02-03T23:18:22.516Z,4.10
2023-02-03T23:20:50.558Z,4.10
2023-02-03T23:23:18.650Z,4.00
2023-02-03T23:25:46.615Z,4.10
2023-02-03T23:28:14.595Z,4.00
2023-02-03T23:30:42.680Z,4.00
2023-02-03T23:33:10.683Z,4.10
2023-02-03T23:35:45.740Z,4.10
2023-02-03T23:38:13.958Z,4.10
2023-02-03T23:40:42.214Z,4.20
2023-02-03T23:43:10.306Z,4.10
2023-02-03T23:45:38.282Z,4.10
2023-02-03T23:48:06.724Z,4.10
2023-02-03T23:50:34.729Z,4.10
2023-02-03T23:53:03.966Z,4.10
2023-02-03T23:55:31.975Z,4.10
2023-02-03T23:57:59.943Z,4.10
